createdAt,value
2023-01-15T00:00:32.686Z,40.13
2023-01-15T00:02:52.941Z,34.15
2023-01-15T00:05:13.086Z,35.80
2023-01-15T00:07:33.108Z,32.08
2023-01-15T00:09:52.687Z,35.00
2023-01-15T00:12:12.382Z,45.67
2023-01-15T00:14:31.954Z,37.58
2023-01-15T00:16:52.634Z,38.83
2023-01-15T00:19:12.580Z,35.72
2023-01-15T00:21:32.533Z,36.92
2023-01-15T00:24:34.136Z,37.00
2023-01-15T00:27:12.447Z,53.95
2023-01-15T00:29:33.849Z,79.50
2023-01-15T00:31:59.284Z,54.65
2023-01-15T00:34:19.192Z,28.45
2023-01-15T00:36:39.616Z,37.80
2023-01-15T00:39:00.597Z,42.63
2023-01-15T00:41:20.652Z,38.15
2023-01-15T00:43:40.728Z,34.50
2023-01-15T00:46:00.744Z,35.22
2023-01-15T00:48:20.530Z,32.55
2023-01-15T00:50:40.261Z,31.08
2023-01-15T00:53:00.124Z,30.42
2023-01-15T00:55:22.071Z,31.88
2023-01-15T00:57:41.710Z,29.95
2023-01-15T01:00:01.591Z,32.75
2023-01-15T01:02:21.730Z,28.10
2023-01-15T01:04:42.053Z,30.98
2023-01-15T01:07:02.212Z,32.38
2023-01-15T01:09:22.412Z,28.38
2023-01-15T01:11:42.735Z,27.13
2023-01-15T01:14:03.020Z,26.90
2023-01-15T01:16:35.092Z,26.38
2023-01-15T01:18:57.684Z,22.20
2023-01-15T01:21:18.086Z,23.38
2023-01-15T01:23:38.300Z,29.85
2023-01-15T01:25:58.340Z,26.55
2023-01-15T01:28:18.070Z,24.08
2023-01-15T01:30:38.355Z,24.17
2023-01-15T01:32:58.505Z,26.52
2023-01-15T01:35:18.160Z,25.98
2023-01-15T01:37:37.835Z,32.53
2023-01-15T01:39:57.816Z,31.95
2023-01-15T01:42:18.060Z,27.60
2023-01-15T01:44:37.933Z,26.17
2023-01-15T01:46:59.171Z,28.77
2023-01-15T01:49:19.886Z,28.92
2023-01-15T01:51:56.370Z,49.03
2023-01-15T01:54:19.955Z,36.08
2023-01-15T01:56:40.315Z,31.95
2023-01-15T01:59:00.411Z,26.75
2023-01-15T02:01:23.730Z,23.10
2023-01-15T02:03:44.112Z,24.30
2023-01-15T02:06:07.825Z,27.20
2023-01-15T02:08:28.090Z,34.33
2023-01-15T02:11:03.323Z,31.08
2023-01-15T02:13:31.560Z,30.58
2023-01-15T02:16:16.028Z,29.05
2023-01-15T02:18:50.938Z,31.17
2023-01-15T02:21:36.103Z,30.90
2023-01-15T02:24:29.069Z,32.63
2023-01-15T02:26:51.821Z,33.90
2023-01-15T02:29:20.822Z,34.90
2023-01-15T02:31:44.602Z,31.58
2023-01-15T02:34:10.411Z,29.92
2023-01-15T02:36:35.194Z,29.58
2023-01-15T02:38:58.433Z,29.65
2023-01-15T02:41:28.385Z,29.80
2023-01-15T02:43:53.377Z,25.83
2023-01-15T02:46:16.588Z,28.52
2023-01-15T02:48:38.316Z,28.63
2023-01-15T02:51:05.586Z,28.33
2023-01-15T02:53:29.350Z,28.48
2023-01-15T02:55:52.425Z,34.50
2023-01-15T02:58:16.942Z,30.77
2023-01-15T03:00:42.549Z,33.08
2023-01-15T03:03:23.544Z,36.00
2023-01-15T03:05:53.578Z,30.00
2023-01-15T03:08:13.659Z,32.58
2023-01-15T03:10:39.488Z,27.77
2023-01-15T03:13:05.592Z,26.60
2023-01-15T03:15:49.843Z,25.60
2023-01-15T03:18:12.925Z,23.73
2023-01-15T03:20:35.308Z,31.45
2023-01-15T03:23:05.652Z,27.58
2023-01-15T03:25:30.175Z,28.48
2023-01-15T03:27:54.540Z,26.33
2023-01-15T03:30:17.245Z,27.10
2023-01-15T03:32:37.913Z,29.45
2023-01-15T03:34:58.271Z,28.45
2023-01-15T03:37:20.464Z,29.08
2023-01-15T03:39:40.882Z,29.27
2023-01-15T03:42:06.542Z,26.73
2023-01-15T03:44:49.220Z,27.63
2023-01-15T03:47:24.191Z,29.57
2023-01-15T03:49:55.964Z,28.45
2023-01-15T03:52:26.345Z,24.50
2023-01-15T03:55:25.514Z,24.05
2023-01-15T03:57:58.635Z,30.13
2023-01-15T04:00:37.621Z,26.25
2023-01-15T04:02:59.001Z,26.48
2023-01-15T04:05:19.605Z,26.35
2023-01-15T04:07:40.127Z,23.00
2023-01-15T04:10:00.502Z,24.73
2023-01-15T04:12:20.389Z,24.00
2023-01-15T04:14:40.738Z,24.08
2023-01-15T04:17:00.821Z,24.83
2023-01-15T04:19:20.576Z,23.00
2023-01-15T04:21:40.767Z,24.08
2023-01-15T04:24:00.907Z,24.05
2023-01-15T04:26:21.021Z,23.30
2023-01-15T04:28:41.688Z,24.85
2023-01-15T04:31:01.842Z,24.17
2023-01-15T04:33:21.981Z,24.30
2023-01-15T04:35:42.192Z,25.77
2023-01-15T04:38:02.026Z,26.02
2023-01-15T04:40:40.449Z,25.23
2023-01-15T04:43:19.335Z,23.23
2023-01-15T04:45:39.181Z,23.55
2023-01-15T04:47:58.930Z,26.70
2023-01-15T04:50:18.649Z,24.70
2023-01-15T04:52:38.725Z,26.40
2023-01-15T04:54:58.623Z,25.13
2023-01-15T04:57:18.120Z,26.60
2023-01-15T04:59:37.693Z,30.90
2023-01-15T05:02:04.617Z,30.33
2023-01-15T05:04:25.993Z,26.60
2023-01-15T05:06:46.476Z,27.92
2023-01-15T05:09:09.165Z,26.83
2023-01-15T05:11:29.655Z,26.85
2023-01-15T05:13:49.578Z,25.73
2023-01-15T05:16:09.231Z,29.05
2023-01-15T05:18:29.312Z,27.27
2023-01-15T05:20:50.690Z,27.90
2023-01-15T05:23:10.734Z,27.83
2023-01-15T05:25:30.841Z,27.67
2023-01-15T05:27:50.647Z,23.63
2023-01-15T05:30:11.522Z,24.98
2023-01-15T05:32:31.345Z,27.35
2023-01-15T05:34:51.574Z,26.52
2023-01-15T05:37:11.656Z,27.33
2023-01-15T05:39:31.358Z,28.13
2023-01-15T05:41:52.143Z,30.10
2023-01-15T05:44:13.020Z,31.77
2023-01-15T05:46:34.537Z,34.03
2023-01-15T05:48:54.197Z,34.08
2023-01-15T05:51:15.263Z,29.55
2023-01-15T05:53:35.330Z,30.40
2023-01-15T05:55:54.887Z,32.55
2023-01-15T05:58:14.624Z,29.25
2023-01-15T06:00:34.690Z,28.17
2023-01-15T06:02:54.825Z,25.45
2023-01-15T06:05:19.399Z,28.52
2023-01-15T06:07:39.345Z,23.40
2023-01-15T06:09:59.396Z,22.42
2023-01-15T06:12:19.380Z,30.98
2023-01-15T06:14:39.023Z,31.23
2023-01-15T06:16:59.013Z,32.95
2023-01-15T06:19:18.602Z,36.20
2023-01-15T06:21:39.096Z,34.25
2023-01-15T06:23:59.443Z,40.40
2023-01-15T06:26:19.412Z,39.67
2023-01-15T06:28:39.158Z,32.67
2023-01-15T06:30:59.375Z,30.70
2023-01-15T06:33:19.291Z,31.63
2023-01-15T06:35:39.400Z,29.77
2023-01-15T06:37:59.633Z,24.80
2023-01-15T06:40:19.569Z,26.73
2023-01-15T06:42:57.999Z,26.90
2023-01-15T06:45:36.655Z,29.40
2023-01-15T06:47:57.332Z,21.80
2023-01-15T06:50:17.076Z,40.65
2023-01-15T06:52:37.317Z,34.63
2023-01-15T06:54:57.266Z,45.40
2023-01-15T06:57:18.348Z,50.53
2023-01-15T06:59:38.102Z,47.40
2023-01-15T07:01:58.070Z,45.47
2023-01-15T07:04:17.817Z,41.20
2023-01-15T07:06:37.652Z,31.65
2023-01-15T07:08:57.639Z,33.30
2023-01-15T07:11:17.273Z,29.02
2023-01-15T07:13:36.959Z,33.88
2023-01-15T07:15:59.546Z,33.85
2023-01-15T07:18:19.644Z,30.77
2023-01-15T07:20:39.762Z,27.45
2023-01-15T07:22:59.589Z,25.20
2023-01-15T07:25:19.808Z,26.83
2023-01-15T07:27:40.112Z,27.30
2023-01-15T07:29:59.827Z,27.67
2023-01-15T07:32:19.724Z,26.98
2023-01-15T07:34:39.845Z,26.38
2023-01-15T07:36:59.877Z,27.95
2023-01-15T07:39:19.547Z,26.65
2023-01-15T07:41:58.404Z,50.38
2023-01-15T07:44:36.556Z,34.30
2023-01-15T07:47:15.274Z,33.33
2023-01-15T07:49:47.784Z,33.35
2023-01-15T07:52:07.936Z,33.25
2023-01-15T07:54:28.597Z,30.33
2023-01-15T07:56:49.969Z,44.38
2023-01-15T07:59:10.046Z,51.78
2023-01-15T08:01:30.381Z,50.10
2023-01-15T08:03:50.667Z,44.58
2023-01-15T08:06:10.610Z,41.92
2023-01-15T08:08:30.422Z,36.88
2023-01-15T08:11:08.994Z,34.55
2023-01-15T08:13:47.637Z,32.53
2023-01-15T08:16:08.155Z,29.70
2023-01-15T08:18:27.822Z,32.38
2023-01-15T08:20:48.125Z,35.20
2023-01-15T08:23:09.863Z,34.05
2023-01-15T08:25:29.786Z,39.47
2023-01-15T08:27:50.621Z,41.58
2023-01-15T08:30:13.960Z,39.63
2023-01-15T08:34:53.701Z,35.50
2023-01-15T08:37:13.540Z,35.88
2023-01-15T08:39:33.396Z,36.03
2023-01-15T08:41:54.988Z,36.92
2023-01-15T08:44:16.404Z,36.53
2023-01-15T08:46:38.630Z,39.92
2023-01-15T08:48:58.534Z,36.95
2023-01-15T08:51:18.987Z,35.58
2023-01-15T08:53:38.837Z,30.85
2023-01-15T08:55:59.449Z,40.20
2023-01-15T08:58:19.198Z,44.05
2023-01-15T09:00:41.223Z,38.72
2023-01-15T09:03:01.315Z,32.17
2023-01-15T10:43:19.975Z,14.98
2023-01-15T10:45:52.315Z,20.30
2023-01-15T10:48:41.040Z,18.15
2023-01-15T10:51:09.232Z,19.45
2023-01-15T10:53:34.270Z,21.63
2023-01-15T10:56:04.453Z,19.58
2023-01-15T10:59:10.822Z,18.27
2023-01-15T11:01:30.846Z,16.00
2023-01-15T11:04:29.756Z,15.98
2023-01-15T11:07:07.660Z,16.70
2023-01-15T11:09:47.538Z,14.73
2023-01-15T11:13:00.528Z,13.55
2023-01-15T11:15:46.678Z,17.23
2023-01-15T11:19:16.994Z,13.15
2023-01-15T11:21:41.328Z,9.55
2023-01-15T11:24:10.654Z,9.85
2023-01-15T11:26:32.299Z,10.10
2023-01-15T11:28:56.595Z,8.20
2023-01-15T11:31:39.874Z,7.38
2023-01-15T11:34:03.300Z,7.28
2023-01-15T11:36:25.852Z,6.97
2023-01-15T11:38:47.998Z,8.55
2023-01-15T11:41:22.600Z,7.60
2023-01-15T11:44:03.214Z,8.50
2023-01-15T11:46:49.098Z,9.93
2023-01-15T11:49:33.257Z,8.85
2023-01-15T11:51:57.584Z,9.32
2023-01-15T11:54:18.358Z,10.30
2023-01-15T11:56:46.105Z,10.95
2023-01-15T11:59:21.098Z,9.70
2023-01-15T12:01:56.713Z,10.70
2023-01-15T12:04:52.553Z,8.85
2023-01-15T12:07:33.204Z,7.43
2023-01-15T12:10:13.279Z,7.65
2023-01-15T12:12:57.487Z,9.30
2023-01-15T12:15:33.838Z,10.57
2023-01-15T12:18:07.511Z,9.68
2023-01-15T12:21:06.951Z,9.70
2023-01-15T12:23:45.553Z,9.82
2023-01-15T12:26:26.780Z,9.82
2023-01-15T12:29:06.252Z,8.95
2023-01-15T12:31:32.988Z,10.07
2023-01-15T12:34:22.292Z,10.43
2023-01-15T12:37:08.990Z,9.50
2023-01-15T12:39:40.645Z,10.95
2023-01-15T12:42:27.321Z,9.32
2023-01-15T12:45:00.763Z,9.23
2023-01-15T12:47:28.155Z,10.55
2023-01-15T12:49:52.591Z,9.63
2023-01-15T12:52:33.509Z,9.70
2023-01-15T12:55:08.703Z,10.73
2023-01-15T12:57:34.949Z,8.95
2023-01-15T13:00:14.371Z,10.63
2023-01-15T13:03:02.988Z,9.50
2023-01-15T13:05:30.932Z,9.27
2023-01-15T13:08:35.495Z,9.50
2023-01-15T13:10:55.791Z,10.48
2023-01-15T13:13:18.867Z,8.98
2023-01-15T13:15:47.619Z,9.48
2023-01-15T13:18:24.137Z,8.80
2023-01-15T13:20:50.771Z,9.27
2023-01-15T13:24:26.753Z,9.05
2023-01-15T13:27:21.066Z,8.75
2023-01-15T13:29:41.383Z,9.07
2023-01-15T13:32:20.209Z,8.02
2023-01-15T13:35:01.335Z,8.25
2023-01-15T13:37:33.038Z,9.45
2023-01-15T13:40:20.336Z,8.57
2023-01-15T13:42:51.941Z,8.50
2023-01-15T13:45:38.533Z,8.38
2023-01-15T13:48:11.153Z,8.75
2023-01-15T13:50:39.328Z,7.32
2023-01-15T13:53:06.327Z,7.15
2023-01-15T13:55:36.379Z,7.75
2023-01-15T13:57:56.250Z,7.07
2023-01-15T14:00:44.370Z,7.00
2023-01-15T14:03:24.351Z,6.93
2023-01-15T14:06:11.952Z,6.38
2023-01-15T14:08:51.660Z,6.32
2023-01-15T14:11:36.804Z,6.40
2023-01-15T14:14:19.806Z,5.65
2023-01-15T14:16:58.564Z,6.78
2023-01-15T14:19:27.286Z,6.35
2023-01-15T14:21:56.822Z,5.57
2023-01-15T14:24:29.048Z,6.13
2023-01-15T14:27:29.263Z,6.13
2023-01-15T14:30:13.439Z,6.03
2023-01-15T14:32:54.939Z,7.53
2023-01-15T14:35:31.008Z,7.15
2023-01-15T14:38:12.727Z,5.50
2023-01-15T14:40:50.696Z,7.22
2023-01-15T14:43:19.654Z,6.22
2023-01-15T14:45:44.342Z,6.10
2023-01-15T14:48:19.935Z,6.13
2023-01-15T14:50:43.284Z,6.60
2023-01-15T14:55:23.284Z,6.72
2023-01-15T14:57:51.201Z,6.32
2023-01-15T15:00:17.379Z,5.47
2023-01-15T15:02:43.315Z,6.15
2023-01-15T15:05:25.311Z,5.60
2023-01-15T15:07:52.135Z,5.55
2023-01-15T15:10:36.966Z,8.07
2023-01-15T15:13:27.352Z,5.70
2023-01-15T15:16:12.067Z,5.07
2023-01-15T15:19:11.059Z,4.65
2023-01-15T15:21:39.416Z,4.65
2023-01-15T15:24:06.599Z,5.50
2023-01-15T15:26:32.636Z,5.13
2023-01-15T15:29:14.279Z,5.65
2023-01-15T15:31:40.133Z,4.43
2023-01-15T15:34:00.676Z,5.13
2023-01-15T15:36:22.263Z,6.20
2023-01-15T15:38:55.781Z,5.53
2023-01-15T15:41:17.856Z,8.07
2023-01-15T15:44:15.947Z,6.10
2023-01-15T15:46:55.018Z,7.80
2023-01-15T15:49:14.907Z,4.93
2023-01-15T15:51:48.162Z,4.88
2023-01-15T15:54:19.224Z,5.45
2023-01-15T15:56:53.626Z,9.18
2023-01-15T15:59:26.098Z,5.60
2023-01-15T16:01:46.334Z,6.00
2023-01-15T16:04:06.726Z,6.88
2023-01-15T16:06:27.231Z,6.03
2023-01-15T16:09:04.157Z,12.55
2023-01-15T16:11:25.789Z,6.65
2023-01-15T16:13:48.997Z,6.13
2023-01-15T16:16:10.689Z,7.20
2023-01-15T16:18:43.697Z,5.45
2023-01-15T16:23:31.821Z,5.85
2023-01-15T16:26:19.019Z,4.07
2023-01-15T16:28:46.892Z,4.57
2023-01-15T16:31:08.094Z,4.43
2023-01-15T16:33:28.918Z,4.70
2023-01-15T16:35:59.017Z,4.78
2023-01-15T16:38:20.239Z,4.93
2023-01-15T16:40:45.435Z,4.85
2023-01-15T16:43:14.453Z,5.07
2023-01-15T16:45:37.210Z,6.18
2023-01-15T16:48:20.326Z,7.75
2023-01-15T16:50:42.030Z,7.45
2023-01-15T16:53:04.508Z,7.33
2023-01-15T16:55:54.687Z,6.57
2023-01-15T16:58:15.880Z,5.55
2023-01-15T17:00:35.649Z,5.38
2023-01-15T17:02:56.212Z,4.80
2023-01-15T17:05:24.197Z,6.43
2023-01-15T17:07:48.163Z,6.32
2023-01-15T17:10:22.767Z,5.78
2023-01-15T17:12:43.390Z,10.10
2023-01-15T17:15:21.093Z,7.63
2023-01-15T17:17:46.098Z,10.85
2023-01-15T17:20:08.469Z,9.48
2023-01-15T17:22:31.224Z,5.25
2023-01-15T17:24:53.776Z,4.70
2023-01-15T17:27:13.697Z,4.90
2023-01-15T17:29:33.179Z,5.63
2023-01-15T17:31:52.842Z,5.20
2023-01-15T17:34:12.921Z,6.10
2023-01-15T17:36:33.902Z,8.20
2023-01-15T17:38:54.870Z,18.10
2023-01-15T17:41:17.055Z,7.72
2023-01-15T17:43:37.081Z,4.85
2023-01-15T17:45:57.245Z,5.15
2023-01-15T17:48:17.814Z,4.45
2023-01-15T17:50:37.920Z,5.65
2023-01-15T17:52:57.515Z,6.32
2023-01-15T17:55:39.442Z,6.40
2023-01-15T17:58:17.898Z,5.55
2023-01-15T18:00:56.393Z,5.88
2023-01-15T18:03:39.256Z,6.05
2023-01-15T18:05:59.075Z,5.95
2023-01-15T18:08:19.081Z,6.38
2023-01-15T18:10:39.135Z,7.57
2023-01-15T18:13:01.516Z,7.78
2023-01-15T18:15:21.312Z,8.23
2023-01-15T18:17:41.249Z,7.07
2023-01-15T18:20:00.880Z,8.50
2023-01-15T18:22:37.176Z,7.05
2023-01-15T18:24:57.428Z,7.90
2023-01-15T18:27:17.635Z,6.35
2023-01-15T18:29:39.672Z,7.82
2023-01-15T18:31:59.504Z,7.30
2023-01-15T18:34:19.778Z,9.20
2023-01-15T18:36:40.675Z,8.77
2023-01-15T18:39:05.993Z,8.15
2023-01-15T18:41:31.834Z,7.00
2023-01-15T18:44:09.982Z,6.65
2023-01-15T18:46:46.535Z,7.95
2023-01-15T18:49:06.892Z,9.30
2023-01-15T18:51:26.999Z,7.25
2023-01-15T18:53:48.266Z,8.48
2023-01-15T18:56:08.457Z,8.50
2023-01-15T18:58:28.115Z,8.57
2023-01-15T19:00:48.331Z,9.25
2023-01-15T19:03:08.410Z,13.30
2023-01-15T19:05:28.112Z,12.98
2023-01-15T19:07:48.182Z,10.20
2023-01-15T19:10:08.710Z,9.40
2023-01-15T19:12:28.517Z,8.40
2023-01-15T19:15:06.937Z,7.55
2023-01-15T19:17:46.054Z,8.18
2023-01-15T19:20:08.013Z,8.68
2023-01-15T19:22:46.586Z,6.25
2023-01-15T19:25:07.243Z,7.35
2023-01-15T19:27:26.923Z,8.35
2023-01-15T19:29:46.853Z,5.93
2023-01-15T19:32:06.772Z,7.05
2023-01-15T19:34:34.559Z,7.68
2023-01-15T19:36:54.608Z,9.82
2023-01-15T19:39:17.513Z,6.25
2023-01-15T19:41:55.561Z,10.73
2023-01-15T19:44:33.425Z,5.32
2023-01-15T19:47:11.469Z,5.70
2023-01-15T19:49:55.463Z,6.93
2023-01-15T19:52:33.824Z,6.25
2023-01-15T19:54:56.097Z,4.43
2023-01-15T19:57:21.068Z,6.00
2023-01-15T19:59:47.194Z,5.00
2023-01-15T20:02:07.379Z,4.65
2023-01-15T20:04:30.273Z,4.85
2023-01-15T20:06:50.190Z,5.97
2023-01-15T20:09:10.209Z,4.82
2023-01-15T20:11:50.223Z,4.57
2023-01-15T20:14:10.093Z,4.82
2023-01-15T20:16:30.226Z,4.30
2023-01-15T20:18:51.417Z,4.93
2023-01-15T20:21:34.365Z,6.75
2023-01-15T20:23:54.478Z,4.55
2023-01-15T20:26:14.920Z,6.22
2023-01-15T20:28:35.333Z,5.53
2023-01-15T20:30:55.622Z,5.85
2023-01-15T20:33:15.928Z,5.93
2023-01-15T20:35:36.081Z,5.10
2023-01-15T20:37:56.885Z,5.80
2023-01-15T20:40:22.032Z,5.40
2023-01-15T20:43:00.932Z,7.63
2023-01-15T20:45:21.213Z,6.18
2023-01-15T20:48:00.892Z,9.00
2023-01-15T20:50:23.866Z,6.88
2023-01-15T20:53:07.258Z,5.72
2023-01-15T20:55:45.638Z,7.82
2023-01-15T20:58:14.130Z,4.78
2023-01-15T21:00:34.796Z,5.60
2023-01-15T21:02:57.146Z,5.90
2023-01-15T21:05:19.713Z,7.57
2023-01-15T21:07:40.229Z,7.10
2023-01-15T21:09:59.976Z,6.22
2023-01-15T21:12:19.843Z,7.03
2023-01-15T21:14:39.899Z,5.50
2023-01-15T21:16:59.612Z,4.93
2023-01-15T21:19:19.721Z,5.70
2023-01-15T21:21:39.894Z,7.40
2023-01-15T21:24:00.443Z,5.53
2023-01-15T21:26:20.666Z,5.28
2023-01-15T21:28:41.132Z,5.07
2023-01-15T21:31:03.358Z,5.85
2023-01-15T21:33:23.485Z,5.37
2023-01-15T21:35:43.464Z,5.03
2023-01-15T21:38:03.039Z,4.90
2023-01-15T21:40:22.743Z,4.72
2023-01-15T21:43:01.095Z,4.40
2023-01-15T21:45:21.476Z,4.20
2023-01-15T21:47:41.290Z,4.10
2023-01-15T21:50:02.284Z,5.18
2023-01-15T21:52:22.812Z,4.57
2023-01-15T21:54:42.715Z,7.85
2023-01-15T21:57:02.946Z,5.03
2023-01-15T21:59:24.249Z,4.22
2023-01-15T22:01:44.023Z,6.05
2023-01-15T22:04:05.600Z,5.40
2023-01-15T22:06:25.267Z,4.40
2023-01-15T22:08:45.340Z,4.38
2023-01-15T22:11:07.399Z,4.07
2023-01-15T22:13:27.140Z,4.53
2023-01-15T22:15:53.558Z,4.43
2023-01-15T22:18:13.429Z,4.50
2023-01-15T22:20:33.582Z,4.43
2023-01-15T22:22:53.476Z,4.80
2023-01-15T22:25:14.869Z,4.85
2023-01-15T22:27:55.876Z,5.30
2023-01-15T22:30:15.962Z,4.03
2023-01-15T22:32:35.676Z,4.90
2023-01-15T22:34:55.499Z,5.35
2023-01-15T22:37:15.289Z,6.25
2023-01-15T22:39:35.211Z,5.10
2023-01-15T22:42:13.642Z,7.05
2023-01-15T22:44:34.112Z,4.72
2023-01-15T22:46:54.180Z,5.53
2023-01-15T22:49:13.956Z,5.03
2023-01-15T22:51:33.875Z,6.25
2023-01-15T22:53:54.392Z,5.28
2023-01-15T22:56:14.665Z,5.28
2023-01-15T22:58:35.631Z,3.83
2023-01-15T23:00:56.153Z,4.47
2023-01-15T23:03:16.776Z,4.30
2023-01-15T23:05:38.277Z,4.45
2023-01-15T23:07:58.208Z,5.97
2023-01-15T23:10:18.483Z,6.05
2023-01-15T23:12:39.862Z,5.65
2023-01-15T23:14:59.544Z,3.40
2023-01-15T23:17:19.199Z,5.25
2023-01-15T23:19:39.557Z,4.43
2023-01-15T23:21:59.947Z,5.55
2023-01-15T23:24:19.971Z,5.20
2023-01-15T23:26:40.098Z,5.40
2023-01-15T23:29:00.389Z,5.72
2023-01-15T23:31:20.744Z,4.10
2023-01-15T23:33:40.706Z,4.60
2023-01-15T23:36:00.293Z,4.30
2023-01-15T23:38:21.143Z,4.70
2023-01-15T23:40:42.025Z,5.00
2023-01-15T23:43:19.951Z,4.80
2023-01-15T23:45:58.431Z,4.28
2023-01-15T23:48:19.531Z,4.65
2023-01-15T23:50:39.785Z,4.88
2023-01-15T23:52:59.884Z,4.68
2023-01-15T23:55:20.020Z,4.80
2023-01-15T23:57:40.156Z,5.47
2023-01-15T23:59:59.702Z,4.15
